This is the latest recevied weather packets stored in our database for station/object DF9PM-13. If no packets are shown the sender has not sent any weather packets the latest 1 day(s).
| Time | Temp. | Humidity | Pressure | Rain* | Wind** | Luminosity | Snow |
|---|---|---|---|---|---|---|---|
| 1777976454 | 23.33° C | 53% | 1008.5 hPa | - | 0.89 m/s, 220° | - | - |
| 1777976154 | 22.22° C | 53% | 1008.6 hPa | - | 0.89 m/s, 220° | - | - |
| 1777975854 | 22.22° C | 55% | 1008.6 hPa | - | 0.89 m/s, 220° | - | - |
| 1777975554 | 21.67° C | 56% | 1008.7 hPa | - | 0.89 m/s, 0° | - | - |
| 1777975254 | 22.22° C | 52% | 1008.6 hPa | - | 0.89 m/s, 0° | - | - |
| 1777974954 | 22.22° C | 52% | 1008.6 hPa | - | 0.89 m/s, 0° | - | - |
| 1777974654 | 20.56° C | 57% | 1008.7 hPa | - | 0.89 m/s, 0° | - | - |
| 1777974354 | 21.11° C | 57% | 1008.8 hPa | - | 0.89 m/s, 0° | - | - |
| 1777974054 | 22.22° C | 51% | 1008.7 hPa | - | 0.89 m/s, 0° | - | - |
| 1777973754 | 22.22° C | 54% | 1008.7 hPa | - | 0.89 m/s, 0° | - | - |
| 1777973453 | 23.33° C | 49% | 1008.7 hPa | - | 0.89 m/s, 0° | - | - |
| 1777973154 | 21.67° C | 52% | 1008.8 hPa | - | 0.45 m/s, 0° | - | - |
| 1777972853 | 22.22° C | 52% | 1008.8 hPa | - | 0.45 m/s, 0° | - | - |
| 1777972553 | 21.67° C | 53% | 1008.9 hPa | - | 0.45 m/s, 0° | - | - |
| 1777972253 | 23.33° C | 51% | 1008.9 hPa | - | 0.89 m/s, 0° | - | - |
| 1777971953 | 22.22° C | 54% | 1008.9 hPa | - | 0.89 m/s, 0° | - | - |
| 1777971653 | 23.33° C | 51% | 1009 hPa | - | 0.89 m/s, 0° | - | - |
| 1777971353 | 20.56° C | 61% | 1009 hPa | - | 0.89 m/s, 0° | - | - |
| 1777971053 | 23.89° C | 50% | 1009.1 hPa | - | 0.89 m/s, 0° | - | - |
| 1777970753 | 23.33° C | 48% | 1009.1 hPa | - | 0.89 m/s, 0° | - | - |
| 1777970453 | 23.33° C | 50% | 1009.2 hPa | - | 0.89 m/s, 0° | - | - |
| 1777970153 | 23.33° C | 50% | 1009.1 hPa | - | 0.89 m/s, 0° | - | - |
| 1777969853 | 22.22° C | 56% | 1009.3 hPa | - | 0.89 m/s, 0° | - | - |
| 1777969553 | 23.89° C | 50% | 1009.3 hPa | - | 0.89 m/s, 0° | - | - |
| 1777969253 | 22.78° C | 52% | 1009.3 hPa | - | 0.89 m/s, 0° | - | - |
* Rain since midnight (hover to see other rain measurements)
** Current wind speed in m/s (hover to see current wind gust speed)